createdAt,value
2023-07-17T03:01:41.238Z,17.40
2023-07-17T03:04:09.156Z,17.40
2023-07-17T03:06:37.058Z,17.30
2023-07-17T03:09:05.020Z,17.30
2023-07-17T03:11:32.957Z,17.20
2023-07-17T03:14:00.879Z,17.30
2023-07-17T03:16:28.938Z,17.30
2023-07-17T03:18:58.304Z,17.10
2023-07-17T03:21:26.353Z,17.10
2023-07-17T03:23:54.322Z,16.90
2023-07-17T03:26:22.187Z,16.90
2023-07-17T03:28:50.537Z,16.80
2023-07-17T03:31:18.642Z,16.70
2023-07-17T03:33:47.673Z,16.60
2023-07-17T03:36:17.083Z,16.60
2023-07-17T03:38:45.125Z,16.60
2023-07-17T03:41:13.187Z,16.60
2023-07-17T03:43:41.501Z,16.70
2023-07-17T03:46:09.757Z,16.60
2023-07-17T03:48:37.792Z,16.60
2023-07-17T03:51:09.147Z,16.60
2023-07-17T03:53:39.919Z,16.60
2023-07-17T03:56:07.920Z,16.60
2023-07-17T03:58:35.849Z,16.60
2023-07-17T04:01:03.999Z,16.60
2023-07-17T04:03:40.315Z,16.50
2023-07-17T04:06:09.377Z,16.40
2023-07-17T04:08:38.650Z,16.30
2023-07-17T04:11:07.005Z,16.20
2023-07-17T04:13:35.819Z,16.20
2023-07-17T04:16:04.809Z,16.30
2023-07-17T04:18:33.147Z,16.30
2023-07-17T04:21:02.150Z,16.30
2023-07-17T04:23:31.273Z,16.30
2023-07-17T04:26:03.073Z,16.30
2023-07-17T04:28:31.069Z,16.30
2023-07-17T04:30:59.188Z,16.30
2023-07-17T04:33:28.294Z,16.30
2023-07-17T04:35:57.593Z,16.30
2023-07-17T04:38:25.960Z,16.30
2023-07-17T04:40:54.025Z,16.30
2023-07-17T04:43:23.266Z,16.50
2023-07-17T04:45:51.631Z,16.50
2023-07-17T04:48:22.571Z,16.60
2023-07-17T04:50:50.565Z,16.70
2023-07-17T04:53:18.657Z,16.60
2023-07-17T04:55:46.727Z,16.70
2023-07-17T04:58:14.901Z,16.70
2023-07-17T05:00:47.650Z,16.80
2023-07-17T05:03:16.034Z,16.80
2023-07-17T05:05:49.856Z,16.70
2023-07-17T05:08:18.514Z,16.70
2023-07-17T05:10:53.794Z,16.60
2023-07-17T05:13:22.827Z,16.60
2023-07-17T05:15:52.868Z,16.70
2023-07-17T05:18:21.343Z,16.80
2023-07-17T05:20:50.624Z,16.80
2023-07-17T05:23:19.058Z,16.80
2023-07-17T05:25:54.608Z,16.90
2023-07-17T05:28:23.696Z,16.90
2023-07-17T05:30:57.596Z,16.90
2023-07-17T05:33:26.823Z,16.90
2023-07-17T05:35:54.884Z,17.10
2023-07-17T05:38:25.101Z,17.20
2023-07-17T05:41:00.692Z,17.10
2023-07-17T05:43:28.753Z,17.10
2023-07-17T05:46:05.175Z,17.10
2023-07-17T05:48:34.276Z,17.20
2023-07-17T05:51:02.261Z,17.00
2023-07-17T05:53:30.950Z,17.00
2023-07-17T05:55:58.895Z,17.10
2023-07-17T05:58:26.852Z,17.00
2023-07-17T06:00:55.204Z,17.20
2023-07-17T06:03:24.524Z,17.30
2023-07-17T06:05:52.396Z,17.50
2023-07-17T06:08:20.493Z,17.60
2023-07-17T06:10:48.438Z,17.70
2023-07-17T06:13:17.579Z,17.90
2023-07-17T06:15:45.741Z,18.10
2023-07-17T06:18:13.897Z,18.30
2023-07-17T06:20:43.166Z,18.10
2023-07-17T06:23:11.079Z,18.30
2023-07-17T06:25:39.915Z,18.40
2023-07-17T06:28:09.258Z,18.40
2023-07-17T06:30:37.542Z,18.50
2023-07-17T06:33:05.637Z,18.60
2023-07-17T06:35:33.671Z,18.80
2023-07-17T06:38:02.949Z,19.10
2023-07-17T06:40:30.900Z,19.00
2023-07-17T06:42:59.140Z,19.00
2023-07-17T06:45:27.013Z,19.10
2023-07-17T06:47:54.976Z,19.40
2023-07-17T06:50:22.941Z,20.10
2023-07-17T06:52:50.817Z,20.60
2023-07-17T06:55:20.761Z,20.90
2023-07-17T06:57:48.675Z,21.10
2023-07-17T07:00:17.205Z,20.70
2023-07-17T07:02:45.169Z,20.40
2023-07-17T07:05:13.325Z,20.50
2023-07-17T07:07:41.979Z,20.60
2023-07-17T07:10:10.519Z,21.00
2023-07-17T07:12:39.762Z,21.00
2023-07-17T07:15:09.136Z,20.70
2023-07-17T07:17:37.108Z,20.50
2023-07-17T07:20:06.059Z,20.50
2023-07-17T07:22:34.023Z,20.90
2023-07-17T07:25:01.972Z,20.90
2023-07-17T07:27:32.141Z,21.10
2023-07-17T07:30:01.453Z,21.30
2023-07-17T07:32:34.274Z,21.20
2023-07-17T07:35:02.248Z,21.00
2023-07-17T07:37:30.217Z,21.00
2023-07-17T07:39:58.437Z,21.00
2023-07-17T07:42:26.363Z,21.10
2023-07-17T07:44:54.256Z,21.20
2023-07-17T07:47:23.564Z,21.30
2023-07-17T07:49:52.271Z,21.30
2023-07-17T07:52:21.151Z,21.40
2023-07-17T07:54:49.134Z,21.40
2023-07-17T07:57:17.066Z,21.50
2023-07-17T07:59:44.985Z,21.40
2023-07-17T08:02:13.302Z,21.40
2023-07-17T08:04:42.878Z,21.50
2023-07-17T08:07:10.924Z,21.50
2023-07-17T08:09:38.927Z,21.70
2023-07-17T08:12:07.482Z,21.80
2023-07-17T08:14:35.510Z,21.90
2023-07-17T08:17:03.823Z,21.90
2023-07-17T08:19:31.713Z,21.90
2023-07-17T08:22:00.935Z,22.10
2023-07-17T08:24:28.876Z,22.20
2023-07-17T08:26:57.239Z,22.20
2023-07-17T08:29:25.247Z,22.20
2023-07-17T08:31:53.224Z,22.10
2023-07-17T08:34:21.944Z,22.20
2023-07-17T08:36:49.847Z,22.40
2023-07-17T08:39:19.140Z,22.50
2023-07-17T08:41:47.938Z,22.50
2023-07-17T08:44:18.557Z,22.60
2023-07-17T08:46:48.002Z,22.80
2023-07-17T08:49:18.292Z,22.90
2023-07-17T08:51:48.714Z,22.90
2023-07-17T08:54:29.238Z,23.00
2023-07-17T08:57:03.741Z,23.00
2023-07-17T08:59:32.494Z,23.00
2023-07-17T09:02:01.404Z,23.10
2023-07-17T09:04:31.679Z,23.10
2023-07-17T09:06:59.710Z,23.20
2023-07-17T09:09:29.022Z,23.30
2023-07-17T09:12:17.283Z,23.40
2023-07-17T09:14:45.323Z,23.40
2023-07-17T09:17:13.449Z,23.40
2023-07-17T09:19:43.464Z,23.30
2023-07-17T09:22:12.147Z,23.30
2023-07-17T09:24:41.408Z,23.40
2023-07-17T09:27:09.494Z,23.80
2023-07-17T09:29:42.690Z,23.80
2023-07-17T09:32:19.727Z,24.00
2023-07-17T09:34:52.040Z,24.00
2023-07-17T09:37:20.060Z,24.10
2023-07-17T09:39:53.743Z,24.10
2023-07-17T09:42:24.951Z,24.00
2023-07-17T09:44:53.799Z,23.90
2023-07-17T09:47:22.368Z,23.80
2023-07-17T09:49:52.229Z,23.80
2023-07-17T09:52:20.764Z,23.90
2023-07-17T09:54:52.124Z,23.90
2023-07-17T09:57:28.726Z,23.70
2023-07-17T09:59:58.883Z,23.70
2023-07-17T10:02:31.614Z,23.90
2023-07-17T10:05:02.246Z,24.20
2023-07-17T10:07:31.878Z,24.20
2023-07-17T10:10:02.264Z,24.30
2023-07-17T10:12:31.647Z,24.30
2023-07-17T10:15:00.962Z,24.40
2023-07-17T10:17:33.353Z,24.50
2023-07-17T10:20:04.062Z,24.90
2023-07-17T10:22:36.645Z,25.30
2023-07-17T10:25:28.332Z,25.60
2023-07-17T10:28:00.845Z,25.70
2023-07-17T10:30:31.106Z,25.70
2023-07-17T10:33:15.019Z,25.50
2023-07-17T10:35:51.324Z,25.10
2023-07-17T10:38:25.108Z,24.90
2023-07-17T10:41:05.567Z,24.80
2023-07-17T10:43:34.774Z,24.80
2023-07-17T10:46:08.995Z,24.90
2023-07-17T10:48:37.174Z,25.20
2023-07-17T10:51:05.472Z,25.10
2023-07-17T10:53:38.417Z,24.80
2023-07-17T10:56:08.528Z,24.90
2023-07-17T10:58:36.421Z,25.10
2023-07-17T11:01:06.407Z,25.20
2023-07-17T11:03:34.422Z,25.30
2023-07-17T11:06:02.312Z,25.90
2023-07-17T11:08:30.241Z,26.10
2023-07-17T11:10:58.213Z,26.10
2023-07-17T11:13:33.278Z,26.10
2023-07-17T11:16:08.702Z,26.50
2023-07-17T11:18:45.227Z,26.90
2023-07-17T11:21:13.641Z,27.00
2023-07-17T11:23:52.358Z,27.20
2023-07-17T11:26:22.052Z,26.90
2023-07-17T11:28:53.138Z,27.00
2023-07-17T11:31:22.384Z,26.60
2023-07-17T11:33:58.733Z,26.70
2023-07-17T11:36:27.109Z,26.70
2023-07-17T11:38:59.029Z,27.00
2023-07-17T11:41:27.426Z,27.30
2023-07-17T11:44:00.071Z,27.80
2023-07-17T11:46:28.176Z,27.90
2023-07-17T11:48:56.474Z,27.60
2023-07-17T11:51:27.991Z,27.40
2023-07-17T11:53:57.363Z,27.50
2023-07-17T11:56:35.212Z,27.80
2023-07-17T11:59:05.257Z,27.50
2023-07-17T12:01:34.145Z,27.50
2023-07-17T12:04:17.420Z,27.40
2023-07-17T12:06:45.342Z,27.50
2023-07-17T12:09:13.639Z,27.80
2023-07-17T12:11:41.774Z,27.60
2023-07-17T12:14:11.023Z,27.50
2023-07-17T12:16:38.946Z,27.20
2023-07-17T12:19:06.894Z,27.50
2023-07-17T12:21:39.716Z,28.20
2023-07-17T12:24:09.719Z,28.40
2023-07-17T12:26:37.729Z,28.20
2023-07-17T12:29:05.721Z,27.50
2023-07-17T12:31:35.330Z,27.20
2023-07-17T12:34:03.262Z,27.70
2023-07-17T12:36:31.280Z,28.40
2023-07-17T12:39:13.347Z,29.10
2023-07-17T12:41:41.302Z,29.50
2023-07-17T12:44:10.214Z,29.40
2023-07-17T12:46:39.483Z,29.60
2023-07-17T12:49:07.533Z,29.10
2023-07-17T12:51:35.455Z,29.40
2023-07-17T12:54:03.782Z,29.80
2023-07-17T12:56:32.725Z,30.00
2023-07-17T12:59:00.949Z,29.50
2023-07-17T13:01:29.111Z,28.40
2023-07-17T13:03:58.573Z,28.00
2023-07-17T13:06:27.267Z,27.70
2023-07-17T13:08:55.222Z,27.80
2023-07-17T13:11:23.457Z,28.60
2023-07-17T13:13:51.769Z,29.00
2023-07-17T13:16:19.761Z,29.30
2023-07-17T13:18:47.783Z,29.80
2023-07-17T13:21:17.205Z,30.00
2023-07-17T13:23:45.372Z,30.10
2023-07-17T13:26:13.998Z,29.80
2023-07-17T13:28:42.200Z,29.40
2023-07-17T13:31:13.025Z,28.90
2023-07-17T13:33:41.188Z,28.80
2023-07-17T13:36:09.200Z,28.60
2023-07-17T13:38:38.430Z,28.30
2023-07-17T13:41:14.919Z,28.20
2023-07-17T13:43:42.883Z,28.20
2023-07-17T13:46:10.763Z,28.30
2023-07-17T13:48:38.664Z,28.80
2023-07-17T13:51:06.586Z,28.90
2023-07-17T13:53:34.525Z,28.60
2023-07-17T13:56:03.844Z,27.90
2023-07-17T13:58:31.778Z,27.60
2023-07-17T14:00:59.694Z,27.40
2023-07-17T14:03:27.811Z,27.40
2023-07-17T14:05:57.856Z,27.40
2023-07-17T14:08:25.811Z,27.20
2023-07-17T14:10:53.744Z,27.00
2023-07-17T14:13:23.104Z,26.90
2023-07-17T14:15:51.087Z,26.90
2023-07-17T14:18:19.317Z,27.10
2023-07-17T14:20:47.245Z,27.30
2023-07-17T14:23:15.287Z,27.40
2023-07-17T14:25:43.194Z,27.40
2023-07-17T14:28:11.206Z,27.70
2023-07-17T14:30:40.489Z,28.90
2023-07-17T14:33:08.436Z,29.80
2023-07-17T14:35:36.362Z,30.10
2023-07-17T14:38:04.251Z,29.70
2023-07-17T14:40:32.900Z,30.00
2023-07-17T14:43:00.884Z,30.60
2023-07-17T14:45:28.884Z,31.20
2023-07-17T14:47:58.579Z,31.10
2023-07-17T14:50:26.492Z,30.50
2023-07-17T14:52:54.467Z,30.00
2023-07-17T14:55:23.815Z,30.60
2023-07-17T14:57:52.008Z,31.10
2023-07-17T15:00:21.416Z,31.20
2023-07-17T15:02:49.612Z,32.10
2023-07-17T15:05:20.916Z,33.30
2023-07-17T15:07:49.179Z,33.80
2023-07-17T15:10:17.180Z,32.90
2023-07-17T15:12:45.091Z,31.70
2023-07-17T15:15:13.988Z,30.20
2023-07-17T15:17:42.004Z,29.30
2023-07-17T15:20:11.295Z,29.40
2023-07-17T15:22:43.982Z,29.80
2023-07-17T15:25:12.513Z,29.10
2023-07-17T15:27:40.419Z,29.00
2023-07-17T15:30:09.747Z,28.60
2023-07-17T15:32:37.680Z,28.30
2023-07-17T15:35:06.473Z,28.30
2023-07-17T15:37:34.610Z,28.30
2023-07-17T15:40:05.539Z,28.20
2023-07-17T15:42:33.462Z,29.70
2023-07-17T15:45:04.645Z,31.40
2023-07-17T15:47:32.653Z,32.50
2023-07-17T15:50:00.569Z,32.30
2023-07-17T15:52:29.297Z,32.70
2023-07-17T15:54:57.268Z,32.20
2023-07-17T15:57:26.531Z,30.80
2023-07-17T15:59:54.397Z,29.40
2023-07-17T16:02:22.392Z,28.90
2023-07-17T16:04:50.374Z,28.80
2023-07-17T16:07:18.380Z,28.20
2023-07-17T16:09:46.256Z,28.10
2023-07-17T16:12:14.161Z,28.00
2023-07-17T16:14:45.095Z,27.90
2023-07-17T16:17:13.265Z,27.80
2023-07-17T16:19:45.182Z,27.50
2023-07-17T16:22:14.040Z,27.70
2023-07-17T16:24:42.046Z,27.60
2023-07-17T16:27:10.245Z,27.60
2023-07-17T16:29:38.220Z,27.40
2023-07-17T16:32:08.246Z,27.40
2023-07-17T16:34:36.222Z,27.30
2023-07-17T16:37:04.796Z,26.90
2023-07-17T16:39:31.692Z,26.90
2023-07-17T16:41:59.603Z,27.10
2023-07-17T16:44:28.032Z,27.10
2023-07-17T16:46:55.952Z,27.20
2023-07-17T16:49:25.237Z,27.30
2023-07-17T16:51:53.130Z,27.20
2023-07-17T16:54:20.998Z,27.10
2023-07-17T16:56:49.117Z,27.20
2023-07-17T16:59:17.346Z,27.10
2023-07-17T17:01:45.876Z,27.00
2023-07-17T17:04:13.884Z,26.90
2023-07-17T17:06:43.160Z,26.90
2023-07-17T17:09:13.256Z,26.90
2023-07-17T17:11:41.372Z,26.80
2023-07-17T17:14:09.913Z,26.60
2023-07-17T17:16:38.010Z,26.40
2023-07-17T17:19:06.627Z,26.30
2023-07-17T17:21:34.801Z,26.30
2023-07-17T17:24:04.255Z,26.30
2023-07-17T17:26:32.254Z,26.20
2023-07-17T17:29:00.225Z,26.20
2023-07-17T17:31:28.420Z,26.10
2023-07-17T17:33:56.544Z,26.10
2023-07-17T17:36:25.450Z,26.60
2023-07-17T17:38:53.436Z,27.10
2023-07-17T17:41:23.079Z,27.60
2023-07-17T17:43:50.996Z,27.90
2023-07-17T17:46:19.101Z,27.80
2023-07-17T17:48:47.855Z,27.10
2023-07-17T17:51:15.875Z,26.60
2023-07-17T17:53:43.864Z,26.30
2023-07-17T17:56:11.826Z,26.10
2023-07-17T17:58:41.125Z,26.00
2023-07-17T18:01:09.030Z,25.90
2023-07-17T18:03:36.994Z,25.80
2023-07-17T18:06:06.089Z,25.70
2023-07-17T18:08:35.046Z,25.60
2023-07-17T18:11:03.360Z,25.50
2023-07-17T18:13:31.312Z,25.50
2023-07-17T18:16:00.749Z,25.50
2023-07-17T18:18:28.716Z,25.60
2023-07-17T18:20:56.712Z,25.60
2023-07-17T18:23:24.868Z,25.60
2023-07-17T18:25:52.779Z,25.60
2023-07-17T18:28:20.663Z,25.60
2023-07-17T18:30:48.537Z,25.50
2023-07-17T18:33:19.340Z,25.50
2023-07-17T18:35:48.138Z,25.50
2023-07-17T18:38:16.177Z,25.50
2023-07-17T18:40:44.054Z,25.40
2023-07-17T18:43:12.145Z,25.30
2023-07-17T18:45:40.064Z,25.30
2023-07-17T18:48:08.369Z,25.20
2023-07-17T18:50:37.677Z,25.20
2023-07-17T18:53:05.939Z,25.10
2023-07-17T18:55:34.033Z,25.00
2023-07-17T18:58:01.890Z,25.00
2023-07-17T19:00:29.739Z,25.00
2023-07-17T19:02:57.725Z,24.90
2023-07-17T19:05:25.683Z,24.80
2023-07-17T19:07:54.941Z,24.80
2023-07-17T19:10:22.829Z,24.70
2023-07-17T19:12:52.025Z,24.60
2023-07-17T19:15:19.910Z,24.60
2023-07-17T19:17:47.879Z,24.50
2023-07-17T19:20:15.817Z,24.40
2023-07-17T19:22:43.751Z,24.30
2023-07-17T19:25:13.151Z,24.10
2023-07-17T19:27:41.024Z,24.00
2023-07-17T19:30:11.044Z,24.00
2023-07-17T19:32:39.643Z,24.00
2023-07-17T19:35:08.860Z,24.00
2023-07-17T19:37:37.022Z,23.90
2023-07-17T19:40:05.905Z,23.80
2023-07-17T19:42:35.115Z,23.80
2023-07-17T19:45:03.120Z,23.70
2023-07-17T19:47:31.541Z,23.60
2023-07-17T19:50:00.253Z,23.50
2023-07-17T19:52:28.141Z,23.40
2023-07-17T19:54:56.944Z,23.30
2023-07-17T19:57:24.984Z,23.30
2023-07-17T19:59:55.800Z,23.20
2023-07-17T20:02:27.229Z,23.20
2023-07-17T20:04:55.593Z,23.10
2023-07-17T20:07:23.611Z,23.00
2023-07-17T20:09:52.700Z,22.90
2023-07-17T20:12:21.392Z,22.90
2023-07-17T20:14:49.298Z,22.80
2023-07-17T20:17:19.180Z,22.90
2023-07-17T20:19:47.113Z,22.90
2023-07-17T20:22:15.019Z,22.90
2023-07-17T20:24:42.946Z,22.90
2023-07-17T20:27:10.929Z,22.90
2023-07-17T20:29:39.174Z,22.90
2023-07-17T20:32:08.113Z,22.90
2023-07-17T20:34:37.355Z,22.90
2023-07-17T20:37:05.432Z,22.80
2023-07-17T20:39:33.472Z,22.80
2023-07-17T20:42:01.541Z,22.70
2023-07-17T20:44:29.767Z,22.60
2023-07-17T20:46:57.705Z,22.60
2023-07-17T20:49:26.980Z,22.50
2023-07-17T20:51:57.078Z,22.50
2023-07-17T20:54:26.769Z,22.50
2023-07-17T20:56:56.039Z,22.50
2023-07-17T20:59:24.032Z,22.50
2023-07-17T21:01:51.967Z,22.40
2023-07-17T21:04:19.914Z,22.40
2023-07-17T21:06:48.115Z,22.30
2023-07-17T21:09:17.378Z,22.30
2023-07-17T21:11:48.096Z,22.20
2023-07-17T21:14:16.418Z,22.10
2023-07-17T21:16:45.155Z,22.00
2023-07-17T21:19:13.276Z,22.00
2023-07-17T21:21:41.201Z,22.00
2023-07-17T21:24:09.417Z,22.00
2023-07-17T21:26:38.669Z,22.00
2023-07-17T21:29:08.357Z,21.90
2023-07-17T21:31:37.808Z,21.80
2023-07-17T21:34:06.275Z,21.80
2023-07-17T21:36:34.555Z,21.70
2023-07-17T21:39:02.437Z,21.70
2023-07-17T21:41:31.987Z,21.60
2023-07-17T21:44:01.734Z,21.60
2023-07-17T21:46:29.689Z,21.60
2023-07-17T21:48:57.627Z,21.60
2023-07-17T21:51:25.508Z,21.50
2023-07-17T21:53:53.378Z,21.50
2023-07-17T21:56:21.257Z,21.50
2023-07-17T21:58:49.125Z,21.50
